Time;durP1;ratioP1;P1;durP2;ratioP2;P2;SDS_P1;SDS_P2;PMS_P1;PMS_P2;Temp;Humidity;BMP_temperature;BMP_pressure;BME280_temperature;BME280_humidity;BME280_pressure;Samples;Min_cycle;Max_cycle;Signal;HPM_P1;HPM_P2
2022/12/23 00:00:35;;;;;;;11.40;1.77;;;7.40;99.90;;;;;;4975711;28;20046;-78
2022/12/23 00:03:01;;;;;;;10.15;2.22;;;7.50;99.90;;;;;;4995105;28;20022;-79
2022/12/23 00:05:28;;;;;;;5.18;1.50;;;7.40;99.90;;;;;;4993587;28;20030;-79
2022/12/23 00:07:54;;;;;;;9.15;1.20;;;7.50;99.90;;;;;;4998784;28;20042;-79
2022/12/23 00:10:20;;;;;;;13.38;1.92;;;7.50;99.90;;;;;;5016236;28;20069;-79
2022/12/23 00:15:30;;;;;;;12.40;1.40;;;7.40;99.90;;;;;;4991159;28;20045;-79
2022/12/23 00:17:56;;;;;;;9.73;1.30;;;7.40;99.90;;;;;;5011338;28;20035;-79
2022/12/23 00:20:22;;;;;;;9.20;1.98;;;7.40;99.90;;;;;;5000292;28;20428;-79
2022/12/23 00:23:06;;;;;;;6.50;1.30;;;7.40;99.90;;;;;;5013445;28;20101;-79
2022/12/23 00:25:40;;;;;;;13.30;1.58;;;7.50;99.90;;;;;;4982280;28;20117;-79
2022/12/23 00:28:09;;;;;;;20.38;1.92;;;7.50;99.90;;;;;;5013250;28;20049;-79
2022/12/23 00:30:35;;;;;;;7.50;1.50;;;7.40;99.90;;;;;;4992223;28;20120;-79
2022/12/23 00:33:01;;;;;;;5.95;0.98;;;7.40;99.90;;;;;;5009299;28;20042;-79
2022/12/23 00:35:30;;;;;;;14.88;1.33;;;7.40;99.90;;;;;;5011284;28;20048;-78
2022/12/23 00:37:56;;;;;;;4.15;1.23;;;7.40;99.90;;;;;;4991958;28;20038;-79
2022/12/23 00:43:25;;;;;;;6.25;1.20;;;7.50;99.90;;;;;;5008207;28;20068;-78
2022/12/23 00:45:51;;;;;;;11.43;1.10;;;7.50;99.90;;;;;;4990554;28;20047;-78
2022/12/23 00:51:01;;;;;;;3.72;0.93;;;7.50;99.90;;;;;;5011030;28;20041;-78
2022/12/23 00:53:27;;;;;;;2.72;0.80;;;7.40;99.90;;;;;;4997550;28;20036;-78
2022/12/23 00:55:53;;;;;;;5.32;0.90;;;7.50;99.90;;;;;;5011722;28;20454;-79
2022/12/23 00:58:20;;;;;;;3.67;1.00;;;7.40;99.90;;;;;;5015193;28;20585;-79
2022/12/23 01:06:16;;;;;;;5.05;0.95;;;7.40;99.90;;;;;;5010250;28;20038;-80
2022/12/23 01:08:42;;;;;;;6.25;1.08;;;7.50;99.90;;;;;;5005148;28;20037;-82
2022/12/23 01:11:10;;;;;;;50.03;3.00;;;7.40;99.90;;;;;;4993127;28;20038;-82
2022/12/23 01:13:36;;;;;;;15.27;1.58;;;7.40;99.90;;;;;;5010686;28;20013;-79
2022/12/23 01:16:05;;;;;;;4.30;0.90;;;7.40;99.90;;;;;;5010039;28;20546;-81
2022/12/23 01:18:33;;;;;;;9.32;1.42;;;7.40;99.90;;;;;;4976156;28;20529;-80
2022/12/23 01:21:04;;;;;;;3.65;1.00;;;7.40;99.90;;;;;;4979841;28;20045;-78
2022/12/23 01:23:31;;;;;;;13.02;1.60;;;7.40;99.90;;;;;;4961514;28;20062;-81
2022/12/23 01:25:59;;;;;;;7.63;1.00;;;7.30;99.90;;;;;;4992487;28;20039;-82
2022/12/23 01:28:29;;;;;;;6.60;1.08;;;7.40;99.90;;;;;;4991145;28;20029;-80
2022/12/23 01:30:58;;;;;;;6.50;2.15;;;7.40;99.90;;;;;;4993515;28;20026;-81
2022/12/23 01:33:24;;;;;;;8.30;1.85;;;7.40;99.90;;;;;;5011384;28;20044;-79
2022/12/23 01:35:50;;;;;;;5.10;1.10;;;7.40;99.90;;;;;;4994372;28;20070;-80
2022/12/23 01:38:16;;;;;;;5.53;1.35;;;7.30;99.90;;;;;;5011815;28;20053;-78
2022/12/23 01:40:44;;;;;;;4.78;0.98;;;7.30;99.90;;;;;;5014071;28;20050;-80
2022/12/23 01:43:17;;;;;;;4.80;1.35;;;7.40;99.90;;;;;;4999135;28;20038;-81
2022/12/23 01:45:43;;;;;;;4.15;1.02;;;7.40;99.90;;;;;;5016588;28;20026;-80
2022/12/23 01:48:23;;;;;;;6.25;1.77;;;7.30;99.90;;;;;;5002270;28;20084;-81
2022/12/23 01:50:55;;;;;;;3.65;0.98;;;7.30;99.90;;;;;;5015062;28;20022;-77
2022/12/23 01:53:34;;;;;;;9.32;1.33;;;7.30;99.90;;;;;;5003026;28;20037;-80
2022/12/23 01:56:05;;;;;;;8.73;1.45;;;7.30;99.90;;;;;;5001787;28;20069;-80
2022/12/23 01:58:55;;;;;;;7.22;1.55;;;7.30;99.90;;;;;;5018921;28;20033;-80
2022/12/23 02:04:12;;;;;;;3.10;1.17;;;7.30;99.90;;;;;;5014729;28;20036;-78
2022/12/23 02:09:33;;;;;;;4.80;1.20;;;7.30;99.90;;;;;;5015888;28;20026;-79
2022/12/23 02:12:11;;;;;;;7.80;1.40;;;7.30;99.90;;;;;;5015334;28;20053;-79
2022/12/23 02:18:26;;;;;;;4.97;1.17;;;7.30;99.90;;;;;;5012205;28;20029;-79
2022/12/23 02:21:10;;;;;;;6.75;1.30;;;7.30;99.90;;;;;;5013064;28;20037;-79
2022/12/23 02:23:36;;;;;;;6.57;1.20;;;7.30;99.90;;;;;;5012389;28;20497;-80
2022/12/23 02:26:39;;;;;;;4.07;1.60;;;7.30;99.90;;;;;;5013438;28;20061;-77
2022/12/23 02:29:26;;;;;;;2.53;0.95;;;7.30;99.90;;;;;;5010640;28;20112;-78
2022/12/23 02:32:20;;;;;;;2.42;1.05;;;7.30;99.90;;;;;;4993218;28;20034;-77
2022/12/23 02:35:21;;;;;;;4.25;1.17;;;7.30;99.90;;;;;;4993564;28;20482;-80
2022/12/23 02:38:04;;;;;;;6.40;1.02;;;7.30;99.90;;;;;;5011418;28;20125;-81
2022/12/23 02:40:36;;;;;;;9.63;1.45;;;7.30;99.90;;;;;;5010123;28;20030;-78
2022/12/23 02:43:26;;;;;;;3.42;1.17;;;7.30;99.90;;;;;;4995615;28;20560;-79
2022/12/23 02:46:11;;;;;;;7.00;1.20;;;7.30;99.90;;;;;;5009511;28;20137;-80
2022/12/23 02:49:01;;;;;;;5.57;1.33;;;7.30;99.90;;;;;;5013422;28;20026;-78
2022/12/23 02:51:32;;;;;;;5.10;1.20;;;7.30;99.90;;;;;;5011431;28;20021;-81
2022/12/23 02:54:02;;;;;;;5.70;1.50;;;7.30;99.90;;;;;;4978287;28;20039;-78
2022/12/23 02:56:31;;;;;;;5.22;1.60;;;7.40;99.90;;;;;;4998180;28;20033;-79
2022/12/23 02:59:03;;;;;;;5.10;1.20;;;7.30;99.90;;;;;;4997464;28;20085;-79
2022/12/23 03:01:32;;;;;;;7.18;1.23;;;7.30;99.90;;;;;;5016206;28;20038;-79
2022/12/23 03:03:58;;;;;;;7.55;1.67;;;7.40;99.90;;;;;;5014835;28;20033;-78
2022/12/23 03:06:46;;;;;;;7.30;1.50;;;7.40;99.90;;;;;;5017867;28;20036;-79
2022/12/23 03:09:23;;;;;;;4.25;1.70;;;7.40;99.90;;;;;;5011338;28;20088;-79
2022/12/23 03:12:26;;;;;;;6.68;2.17;;;7.40;99.90;;;;;;5010064;28;20029;-79
2022/12/23 03:15:21;;;;;;;7.95;1.58;;;7.40;99.90;;;;;;4991461;28;20066;-79
2022/12/23 03:18:05;;;;;;;4.05;1.10;;;7.30;99.90;;;;;;5014063;28;20041;-80
2022/12/23 03:20:48;;;;;;;5.47;1.20;;;7.30;99.90;;;;;;5014504;28;20065;-79
2022/12/23 03:23:14;;;;;;;16.20;1.67;;;7.30;99.90;;;;;;5011962;28;20131;-81
2022/12/23 03:25:56;;;;;;;4.93;1.13;;;7.30;99.90;;;;;;5011101;28;20628;-81
2022/12/23 03:28:29;;;;;;;5.68;1.70;;;7.30;99.90;;;;;;4995745;28;20033;-80
2022/12/23 03:30:58;;;;;;;11.05;1.30;;;7.30;99.90;;;;;;5020661;28;20029;-79
2022/12/23 03:33:40;;;;;;;6.28;1.50;;;7.30;99.90;;;;;;5021282;28;20022;-79
2022/12/23 03:36:32;;;;;;;8.50;1.42;;;7.30;99.90;;;;;;5017039;28;20069;-80
2022/12/23 03:39:00;;;;;;;4.10;1.20;;;7.30;99.90;;;;;;5004607;28;20038;-79
2022/12/23 03:41:34;;;;;;;14.13;1.80;;;7.30;99.90;;;;;;5020132;28;20042;-79
2022/12/23 03:44:09;;;;;;;7.72;1.38;;;7.30;99.90;;;;;;5021463;28;20116;-80
2022/12/23 03:46:46;;;;;;;3.13;1.25;;;7.40;99.90;;;;;;5004637;28;20053;-79
2022/12/23 03:49:21;;;;;;;7.57;1.50;;;7.40;99.90;;;;;;5003575;28;20057;-79
2022/12/23 03:52:09;;;;;;;13.88;2.00;;;7.40;99.90;;;;;;5014375;28;20052;-81
2022/12/23 03:54:42;;;;;;;4.07;1.50;;;7.40;99.90;;;;;;4992228;28;20034;-81
2022/12/23 03:57:10;;;;;;;5.47;1.40;;;7.30;99.90;;;;;;4988421;28;20088;-81
2022/12/23 03:59:40;;;;;;;10.05;1.85;;;7.30;99.90;;;;;;4992254;28;20394;-81
2022/12/23 04:02:25;;;;;;;9.00;1.60;;;7.30;99.90;;;;;;4982984;28;20042;-80
2022/12/23 04:05:12;;;;;;;6.78;1.40;;;7.30;99.90;;;;;;4995672;28;20049;-80
2022/12/23 04:08:02;;;;;;;7.70;2.03;;;7.30;99.90;;;;;;4992840;28;20103;-78
2022/12/23 04:10:28;;;;;;;8.05;1.60;;;7.30;99.90;;;;;;4992033;28;20104;-80
2022/12/23 04:12:55;;;;;;;30.02;3.00;;;7.40;99.90;;;;;;5012129;28;20508;-80
2022/12/23 04:15:23;;;;;;;6.55;1.52;;;7.40;99.90;;;;;;4993680;28;20037;-78
2022/12/23 04:17:51;;;;;;;21.50;2.35;;;7.30;99.90;;;;;;5012444;28;20517;-77
2022/12/23 04:20:17;;;;;;;58.60;4.78;;;7.40;99.90;;;;;;4994433;28;20116;-81
2022/12/23 04:22:43;;;;;;;11.38;2.42;;;7.40;99.90;;;;;;5012467;28;20393;-79
2022/12/23 04:25:13;;;;;;;6.18;1.70;;;7.40;99.90;;;;;;4994577;28;20037;-78
2022/12/23 04:27:39;;;;;;;8.13;1.83;;;7.40;99.90;;;;;;4979368;28;20030;-79
2022/12/23 04:30:07;;;;;;;37.63;4.50;;;7.30;99.90;;;;;;4995319;28;20493;-79
2022/12/23 04:32:33;;;;;;;177.98;8.63;;;7.40;99.90;;;;;;4995171;28;20030;-79
2022/12/23 04:34:59;;;;;;;26.42;2.05;;;7.40;99.90;;;;;;5013043;28;20045;-79
2022/12/23 04:37:25;;;;;;;81.55;4.35;;;7.30;99.90;;;;;;4979312;28;20414;-79
2022/12/23 04:39:51;;;;;;;87.20;4.00;;;7.30;99.90;;;;;;4995490;28;20022;-78
2022/12/23 04:42:17;;;;;;;25.15;1.77;;;7.30;99.90;;;;;;5013112;28;20029;-79
2022/12/23 04:44:42;;;;;;;35.30;2.05;;;7.20;99.90;;;;;;4995339;28;20640;-79
2022/12/23 04:47:08;;;;;;;79.07;3.13;;;7.20;99.90;;;;;;5009337;28;20033;-79
2022/12/23 04:49:35;;;;;;;33.08;1.90;;;7.20;99.90;;;;;;5012647;28;20061;-79
2022/12/23 04:52:00;;;;;;;13.77;1.55;;;7.20;99.90;;;;;;4994447;28;20030;-79
2022/12/23 04:54:26;;;;;;;27.00;1.80;;;7.20;99.90;;;;;;5009735;28;20112;-79
2022/12/23 04:56:52;;;;;;;27.42;2.15;;;7.20;99.90;;;;;;5013057;28;20041;-79
2022/12/23 04:59:18;;;;;;;81.97;7.47;;;7.10;99.90;;;;;;4994479;28;20099;-79
2022/12/23 05:01:44;;;;;;;64.47;2.78;;;7.10;99.90;;;;;;5011929;28;20117;-79
2022/12/23 05:04:10;;;;;;;16.35;2.95;;;7.20;99.90;;;;;;5019190;28;20041;-80
2022/12/23 05:06:37;;;;;;;69.57;3.92;;;7.20;99.90;;;;;;5006972;28;20037;-80
2022/12/23 05:09:04;;;;;;;34.92;2.78;;;7.10;99.90;;;;;;5021330;28;20066;-79
2022/12/23 05:11:30;;;;;;;16.98;2.17;;;7.10;99.90;;;;;;5012600;28;20014;-78
2022/12/23 05:13:56;;;;;;;74.55;4.32;;;7.20;99.90;;;;;;4983104;28;20034;-79
2022/12/23 05:16:23;;;;;;;87.82;4.40;;;7.10;99.90;;;;;;5021143;28;20388;-80
2022/12/23 05:18:49;;;;;;;15.82;1.90;;;7.10;99.90;;;;;;5021151;28;20030;-79
2022/12/23 05:21:15;;;;;;;4.78;1.02;;;7.20;99.90;;;;;;5011084;28;20065;-80
2022/12/23 05:23:41;;;;;;;11.95;1.33;;;7.20;99.90;;;;;;4979086;28;20030;-82
2022/12/23 05:26:07;;;;;;;23.70;2.92;;;7.20;99.90;;;;;;5033371;28;20073;-80
2022/12/23 05:28:33;;;;;;;104.03;6.47;;;7.10;99.90;;;;;;4991949;28;20033;-79
2022/12/23 05:31:01;;;;;;;113.45;5.55;;;7.20;99.90;;;;;;5024096;28;20033;-79
2022/12/23 05:33:28;;;;;;;3.42;2.30;;;7.10;99.90;;;;;;5003885;28;20032;-79
2022/12/23 05:35:54;;;;;;;61.92;4.03;;;7.10;99.90;;;;;;5015517;28;20068;-78
2022/12/23 05:38:20;;;;;;;122.32;5.88;;;7.10;99.90;;;;;;5015214;28;20033;-77
2022/12/23 05:40:47;;;;;;;58.38;4.45;;;7.20;99.90;;;;;;4989886;28;20041;-79
2022/12/23 05:43:13;;;;;;;10.73;3.20;;;7.20;99.90;;;;;;5011166;28;20108;-79
2022/12/23 05:45:39;;;;;;;3.28;2.45;;;7.20;99.90;;;;;;4997847;28;20089;-79
2022/12/23 05:48:06;;;;;;;10.63;3.13;;;7.20;99.90;;;;;;5013906;28;20057;-78
2022/12/23 05:50:32;;;;;;;4.38;3.15;;;7.30;99.90;;;;;;4981169;28;20125;-79
2022/12/23 05:53:01;;;;;;;16.67;3.70;;;7.30;99.90;;;;;;5006665;28;20029;-77
2022/12/23 05:55:27;;;;;;;4.32;2.83;;;7.30;99.90;;;;;;5001309;28;20368;-80
2022/12/23 05:57:53;;;;;;;6.47;2.95;;;7.30;99.90;;;;;;5005491;28;20069;-80
2022/12/23 06:00:19;;;;;;;46.65;4.28;;;7.40;99.90;;;;;;5020198;28;20045;-79
2022/12/23 06:02:45;;;;;;;15.07;2.42;;;7.40;99.90;;;;;;5003422;28;20129;-79
2022/12/23 06:05:11;;;;;;;14.60;2.97;;;7.40;99.90;;;;;;5005668;28;20042;-79
2022/12/23 06:07:39;;;;;;;5.28;2.70;;;7.40;99.90;;;;;;5022069;28;20036;-79
2022/12/23 06:10:07;;;;;;;110.55;6.60;;;7.40;99.90;;;;;;4995356;28;20223;-78
2022/12/23 06:12:33;;;;;;;85.60;5.40;;;7.40;99.90;;;;;;5016068;28;20049;-79
2022/12/23 06:14:59;;;;;;;109.55;7.10;;;7.40;99.90;;;;;;5002228;28;20046;-80
2022/12/23 06:17:25;;;;;;;250.25;13.25;;;7.40;99.90;;;;;;5010943;28;20034;-81
2022/12/23 06:19:51;;;;;;;6.60;1.58;;;7.40;99.90;;;;;;4980851;28;20044;-81
2022/12/23 06:22:19;;;;;;;55.20;3.63;;;7.40;99.90;;;;;;5012883;28;20402;-82
2022/12/23 06:24:45;;;;;;;56.45;4.60;;;7.30;99.90;;;;;;4996377;28;20391;-82
2022/12/23 06:27:11;;;;;;;118.28;6.50;;;7.40;99.90;;;;;;4997030;28;20113;-81
2022/12/23 06:29:37;;;;;;;215.52;10.60;;;7.30;99.90;;;;;;4996022;28;20030;-80
2022/12/23 06:32:03;;;;;;;134.00;5.95;;;7.30;99.90;;;;;;5000822;28;20049;-80
2022/12/23 06:34:30;;;;;;;34.25;2.83;;;7.30;99.90;;;;;;4986420;28;20664;-80
2022/12/23 06:36:56;;;;;;;126.40;4.75;;;7.30;99.90;;;;;;5006786;28;20065;-79
2022/12/23 06:39:22;;;;;;;6.05;0.90;;;7.20;99.90;;;;;;5013857;28;20030;-78
2022/12/23 06:41:48;;;;;;;39.33;2.88;;;7.20;99.90;;;;;;5012429;28;20041;-79
2022/12/23 06:44:14;;;;;;;4.00;1.10;;;7.20;99.90;;;;;;4995686;28;20117;-79
2022/12/23 06:46:40;;;;;;;67.55;2.92;;;7.10;99.90;;;;;;4988206;28;20076;-79
2022/12/23 06:49:06;;;;;;;6.93;1.10;;;7.10;99.90;;;;;;4997421;28;20113;-79
2022/12/23 06:51:32;;;;;;;22.38;2.05;;;7.00;99.90;;;;;;5014224;28;20520;-81
2022/12/23 06:53:59;;;;;;;49.38;2.25;;;7.10;99.90;;;;;;4994369;28;20041;-79
2022/12/23 06:56:25;;;;;;;56.28;3.67;;;7.00;99.90;;;;;;5004834;28;20104;-80
2022/12/23 06:58:51;;;;;;;64.70;3.03;;;7.10;99.90;;;;;;5012913;28;20034;-79
2022/12/23 07:01:20;;;;;;;29.42;2.33;;;7.10;99.90;;;;;;5012948;28;20520;-80
2022/12/23 07:03:48;;;;;;;67.45;3.40;;;7.10;99.90;;;;;;5010656;28;20064;-79
2022/12/23 07:06:14;;;;;;;14.27;1.45;;;7.00;99.90;;;;;;5013237;28;20429;-79
2022/12/23 07:08:39;;;;;;;26.38;1.73;;;7.00;99.90;;;;;;5013888;28;20083;-79
2022/12/23 07:11:05;;;;;;;28.13;2.55;;;7.10;99.90;;;;;;5002879;28;20542;-79
2022/12/23 07:13:32;;;;;;;14.43;1.15;;;7.10;99.90;;;;;;5003749;28;20030;-80
2022/12/23 07:15:58;;;;;;;32.35;3.45;;;7.10;99.90;;;;;;5002916;28;20042;-80
2022/12/23 07:18:24;;;;;;;46.25;2.15;;;7.10;99.90;;;;;;5025041;28;20121;-80
2022/12/23 07:20:51;;;;;;;18.02;1.63;;;7.00;99.90;;;;;;4993873;28;20038;-80
2022/12/23 07:23:17;;;;;;;10.60;1.58;;;7.00;99.90;;;;;;4992863;28;20044;-81
2022/12/23 07:25:43;;;;;;;37.53;1.38;;;7.00;99.90;;;;;;4994487;28;20044;-81
2022/12/23 07:28:09;;;;;;;36.25;1.42;;;7.00;99.90;;;;;;4991800;28;20029;-80
2022/12/23 07:30:36;;;;;;;7.93;0.63;;;7.00;99.90;;;;;;4977922;28;20403;-81
2022/12/23 07:33:01;;;;;;;22.98;1.85;;;6.90;99.90;;;;;;4991259;28;20026;-79
2022/12/23 07:35:27;;;;;;;35.75;2.33;;;6.90;99.90;;;;;;4992575;28;20037;-80
2022/12/23 07:37:54;;;;;;;17.15;1.20;;;7.00;99.90;;;;;;4997463;28;20116;-80
2022/12/23 07:40:21;;;;;;;28.33;3.88;;;7.00;99.90;;;;;;5018609;28;20041;-80
2022/12/23 07:42:56;;;;;;;42.08;1.92;;;7.00;99.90;;;;;;5001307;28;20084;-80
2022/12/23 07:45:22;;;;;;;14.15;0.70;;;7.10;99.90;;;;;;4979704;28;20041;-81
2022/12/23 07:47:58;;;;;;;24.50;1.08;;;7.10;99.90;;;;;;4976354;28;20041;-80
2022/12/23 07:50:25;;;;;;;8.40;0.60;;;7.10;99.90;;;;;;5000433;28;20034;-81
2022/12/23 07:52:51;;;;;;;2.75;0.10;;;7.10;99.90;;;;;;4992597;28;20379;-79
2022/12/23 07:55:18;;;;;;;6.63;0.40;;;7.20;99.90;;;;;;5014192;28;20030;-80
2022/12/23 07:57:47;;;;;;;16.73;1.08;;;7.20;99.90;;;;;;5020062;28;20060;-78
2022/12/23 08:00:13;;;;;;;25.17;1.27;;;7.20;99.90;;;;;;5035005;28;20033;-79
2022/12/23 08:02:39;;;;;;;52.75;2.00;;;7.20;99.90;;;;;;4995227;28;20026;-79
2022/12/23 08:05:06;;;;;;;27.13;1.98;;;7.20;99.90;;;;;;5012506;28;20061;-80
2022/12/23 08:07:32;;;;;;;19.67;1.10;;;7.30;99.90;;;;;;5007903;28;20026;-80
2022/12/23 08:09:58;;;;;;;12.10;0.80;;;7.40;99.90;;;;;;5002819;28;20022;-80
2022/12/23 08:12:24;;;;;;;97.07;4.85;;;7.40;99.90;;;;;;5009082;28;20510;-78
2022/12/23 08:14:51;;;;;;;28.55;1.90;;;7.50;99.90;;;;;;4990182;28;20472;-78
2022/12/23 08:17:20;;;;;;;9.88;1.00;;;7.50;99.90;;;;;;5008232;28;20067;-79
2022/12/23 08:19:49;;;;;;;3.25;0.75;;;7.50;99.90;;;;;;4991876;28;20070;-79
2022/12/23 08:22:15;;;;;;;0.45;0.45;;;7.60;99.90;;;;;;5015215;28;20030;-79
2022/12/23 08:24:41;;;;;;;0.80;0.50;;;7.60;99.90;;;;;;5009319;28;20034;-80
2022/12/23 08:27:06;;;;;;;1.02;0.65;;;7.70;99.90;;;;;;4982942;28;20045;-81
2022/12/23 08:29:32;;;;;;;2.58;0.60;;;7.70;99.90;;;;;;4986954;28;20524;-79
2022/12/23 08:31:58;;;;;;;0.75;0.50;;;7.80;99.90;;;;;;4990241;28;20053;-79
2022/12/23 08:34:24;;;;;;;0.50;0.50;;;7.80;99.90;;;;;;4990191;28;20053;-79
2022/12/23 08:36:50;;;;;;;2.55;0.68;;;7.80;99.90;;;;;;4997577;28;20030;-80
2022/12/23 08:39:17;;;;;;;0.60;0.60;;;7.90;99.90;;;;;;5007433;28;20128;-79
2022/12/23 08:41:46;;;;;;;0.40;0.40;;;7.90;99.90;;;;;;5013495;28;20072;-79
2022/12/23 08:44:13;;;;;;;5.47;0.80;;;7.90;99.90;;;;;;4994699;28;20076;-79
2022/12/23 08:46:39;;;;;;;7.18;1.13;;;7.90;99.90;;;;;;4993560;28;20018;-82
2022/12/23 08:49:06;;;;;;;7.50;0.70;;;8.00;99.90;;;;;;4992345;28;20021;-80
2022/12/23 08:51:32;;;;;;;0.90;0.70;;;8.00;99.90;;;;;;4995390;28;20103;-79
2022/12/23 08:53:59;;;;;;;16.85;1.13;;;8.00;99.90;;;;;;5012421;28;20026;-80
2022/12/23 08:56:28;;;;;;;8.68;0.80;;;8.00;99.90;;;;;;5010683;28;20029;-79
2022/12/23 08:58:55;;;;;;;45.38;2.33;;;8.00;99.90;;;;;;5013939;28;20601;-79
2022/12/23 09:01:23;;;;;;;16.40;1.00;;;8.00;99.90;;;;;;4995916;28;20179;-80
2022/12/23 09:03:50;;;;;;;55.38;2.63;;;8.00;99.90;;;;;;5009150;28;20037;-79
2022/12/23 09:06:24;;;;;;;35.20;1.63;;;8.00;99.90;;;;;;4993877;28;20034;-79
2022/12/23 09:08:50;;;;;;;29.92;1.10;;;8.00;99.90;;;;;;4995224;28;20103;-79
2022/12/23 09:11:19;;;;;;;46.95;2.00;;;8.00;99.90;;;;;;5011368;28;20072;-78
2022/12/23 09:13:45;;;;;;;1.75;0.73;;;8.10;99.90;;;;;;5004778;28;20053;-81
2022/12/23 09:16:12;;;;;;;42.10;2.50;;;8.10;99.90;;;;;;4990892;28;20022;-82
2022/12/23 09:18:37;;;;;;;1.02;0.70;;;8.10;99.90;;;;;;5006620;28;20030;-79
2022/12/23 09:21:05;;;;;;;44.80;2.38;;;8.10;99.90;;;;;;5010267;28;20026;-79
2022/12/23 09:23:32;;;;;;;17.65;1.40;;;8.10;99.90;;;;;;4993332;28;20030;-79
2022/12/23 09:25:58;;;;;;;45.00;3.15;;;8.10;99.90;;;;;;4996582;28;20044;-79
2022/12/23 09:28:25;;;;;;;35.50;3.28;;;8.10;99.90;;;;;;5014182;28;20026;-79
2022/12/23 09:30:51;;;;;;;30.40;1.52;;;8.10;99.90;;;;;;4992113;28;20113;-79
2022/12/23 09:33:17;;;;;;;22.73;1.35;;;8.20;99.90;;;;;;4995695;28;20069;-81
2022/12/23 09:35:44;;;;;;;47.15;2.00;;;8.10;99.90;;;;;;4991091;28;20029;-78
2022/12/23 09:38:10;;;;;;;108.38;4.88;;;8.10;99.90;;;;;;5006802;28;20030;-78
2022/12/23 09:40:37;;;;;;;20.38;1.60;;;8.10;99.90;;;;;;5020260;28;20164;-79
2022/12/23 09:43:14;;;;;;;2.15;0.63;;;8.10;99.90;;;;;;5015015;28;20042;-79
2022/12/23 09:46:08;;;;;;;46.78;2.30;;;8.20;99.90;;;;;;5013762;28;20026;-79
2022/12/23 09:48:47;;;;;;;19.58;1.42;;;8.30;99.90;;;;;;5012777;28;20018;-79
2022/12/23 09:51:14;;;;;;;9.30;1.13;;;8.30;99.90;;;;;;4976123;28;20026;-78
2022/12/23 09:54:11;;;;;;;0.80;0.80;;;8.30;99.90;;;;;;4994005;28;20113;-78
2022/12/23 09:56:43;;;;;;;26.38;1.70;;;8.40;99.90;;;;;;5019887;28;20401;-79
2022/12/23 09:59:33;;;;;;;0.90;0.60;;;8.50;99.90;;;;;;4991895;28;20478;-79
2022/12/23 10:02:21;;;;;;;1.08;0.80;;;8.50;99.90;;;;;;5012524;28;20034;-78
2022/12/23 10:05:04;;;;;;;1.02;0.73;;;8.60;99.90;;;;;;5007172;28;20034;-78
2022/12/23 10:08:01;;;;;;;8.88;0.90;;;8.80;99.90;;;;;;5012119;28;20048;-79
2022/12/23 10:10:45;;;;;;;1.40;0.70;;;8.90;99.90;;;;;;5002757;28;20042;-80
2022/12/23 10:13:38;;;;;;;2.38;0.90;;;9.00;99.90;;;;;;5004439;28;20050;-78
2022/12/23 10:16:12;;;;;;;31.45;1.70;;;9.10;99.90;;;;;;5010828;28;20026;-80
2022/12/23 10:19:00;;;;;;;68.40;2.63;;;9.10;99.90;;;;;;4989936;28;20037;-79
2022/12/23 10:21:48;;;;;;;9.13;0.85;;;9.20;99.90;;;;;;5011558;28;20025;-77
2022/12/23 10:24:22;;;;;;;23.23;1.55;;;9.20;99.90;;;;;;5028073;28;20038;-79
2022/12/23 10:26:53;;;;;;;0.50;0.40;;;9.20;99.90;;;;;;4997458;28;20390;-80
2022/12/23 10:29:22;;;;;;;26.60;1.42;;;9.20;99.90;;;;;;4994759;28;20129;-78
2022/12/23 10:31:50;;;;;;;1.15;0.45;;;9.20;99.90;;;;;;5010572;28;20043;-79
2022/12/23 10:34:21;;;;;;;52.97;2.60;;;9.20;99.90;;;;;;4995529;28;20018;-79
2022/12/23 10:37:15;;;;;;;0.35;0.28;;;9.20;99.90;;;;;;5014152;28;20021;-78
2022/12/23 10:39:55;;;;;;;1.13;0.17;;;9.20;99.90;;;;;;5012710;28;20103;-80
2022/12/23 10:42:32;;;;;;;23.58;1.33;;;9.20;99.90;;;;;;5015124;28;20096;-79
2022/12/23 10:45:35;;;;;;;31.35;1.40;;;9.20;99.90;;;;;;5015668;28;20474;-79
2022/12/23 10:48:26;;;;;;;8.80;0.80;;;9.20;99.90;;;;;;5007019;28;20038;-79
2022/12/23 10:51:09;;;;;;;0.45;0.30;;;9.20;99.90;;;;;;5009436;28;20030;-80
2022/12/23 10:53:49;;;;;;;3.10;0.40;;;9.20;99.90;;;;;;5012045;28;20037;-79
2022/12/23 10:56:16;;;;;;;36.63;2.72;;;9.20;99.90;;;;;;5013686;28;20152;-78
2022/12/23 10:58:44;;;;;;;5.07;0.63;;;9.20;99.90;;;;;;5010872;28;20033;-79
2022/12/23 11:01:14;;;;;;;3.22;0.50;;;9.30;99.90;;;;;;4994824;28;20458;-79
2022/12/23 11:03:44;;;;;;;2.30;0.60;;;9.20;99.90;;;;;;5010677;28;20064;-78
2022/12/23 11:06:11;;;;;;;17.10;1.00;;;9.20;99.90;;;;;;5013520;28;20137;-78
2022/12/23 11:08:38;;;;;;;23.85;0.90;;;9.20;99.90;;;;;;5015757;28;20029;-79
2022/12/23 11:11:05;;;;;;;16.50;1.08;;;9.20;99.90;;;;;;5015623;28;20374;-77
2022/12/23 11:13:39;;;;;;;6.32;0.57;;;9.30;99.90;;;;;;5011888;28;20514;-80
2022/12/23 11:16:26;;;;;;;1.95;0.63;;;9.20;99.90;;;;;;5013851;28;20033;-78
2022/12/23 11:18:54;;;;;;;102.93;7.10;;;9.20;99.90;;;;;;5017880;28;20037;-78
2022/12/23 11:21:20;;;;;;;15.20;0.95;;;9.20;99.90;;;;;;5005615;28;20031;-78
2022/12/23 11:23:46;;;;;;;4.82;0.70;;;9.20;99.90;;;;;;4990561;28;20027;-78
2022/12/23 11:26:19;;;;;;;54.03;2.30;;;9.20;99.90;;;;;;4994222;28;20069;-79
2022/12/23 11:28:57;;;;;;;1.20;0.40;;;9.20;99.90;;;;;;4991284;28;20018;-79
2022/12/23 11:31:33;;;;;;;1.40;0.50;;;9.20;99.90;;;;;;4986690;28;20076;-79
2022/12/23 11:34:06;;;;;;;0.73;0.52;;;9.10;99.90;;;;;;5006350;28;20029;-79
2022/12/23 11:36:32;;;;;;;0.65;0.63;;;9.10;99.90;;;;;;4976769;28;20034;-79
2022/12/23 11:39:06;;;;;;;0.63;0.63;;;9.20;99.90;;;;;;4999264;28;20041;-78
2022/12/23 11:41:46;;;;;;;0.73;0.63;;;9.10;99.90;;;;;;5006567;28;20358;-79
2022/12/23 11:44:27;;;;;;;0.90;0.70;;;9.10;99.90;;;;;;4994364;28;20050;-80
2022/12/23 11:46:53;;;;;;;1.00;0.80;;;9.10;99.90;;;;;;5004611;28;20085;-78
2022/12/23 11:49:22;;;;;;;1.10;0.70;;;9.10;99.90;;;;;;5003869;28;20478;-80
2022/12/23 11:52:01;;;;;;;2.03;0.68;;;9.00;99.90;;;;;;4994231;28;20038;-79
2022/12/23 11:54:28;;;;;;;1.02;0.60;;;9.00;99.90;;;;;;4957847;28;20053;-79
2022/12/23 11:56:54;;;;;;;0.63;0.60;;;9.00;99.90;;;;;;5010000;28;20026;-78
2022/12/23 11:59:38;;;;;;;1.88;0.75;;;9.00;99.90;;;;;;5014229;28;20052;-79
2022/12/23 12:02:18;;;;;;;0.77;0.70;;;9.00;99.90;;;;;;5008640;28;20061;-78
2022/12/23 12:04:56;;;;;;;0.50;0.50;;;9.00;99.90;;;;;;4993116;28;20044;-78
2022/12/23 12:07:23;;;;;;;0.80;0.70;;;8.90;99.90;;;;;;5013674;28;20060;-79
2022/12/23 12:09:50;;;;;;;0.77;0.77;;;9.00;99.90;;;;;;5009247;28;20041;-78
2022/12/23 12:12:19;;;;;;;1.38;0.65;;;8.90;99.90;;;;;;4993473;28;20030;-77
2022/12/23 12:14:59;;;;;;;0.50;0.50;;;9.00;99.90;;;;;;5010122;28;20025;-80
2022/12/23 12:17:39;;;;;;;0.40;0.40;;;9.00;99.90;;;;;;4976322;28;20060;-79
2022/12/23 12:20:18;;;;;;;1.95;0.60;;;8.90;99.90;;;;;;5006342;28;20120;-77
2022/12/23 12:22:59;;;;;;;0.57;0.45;;;8.90;99.90;;;;;;4990782;28;20048;-77
2022/12/23 12:25:49;;;;;;;0.90;0.65;;;8.90;99.90;;;;;;4987812;28;20044;-78
2022/12/23 12:28:38;;;;;;;0.47;0.43;;;9.00;99.90;;;;;;4991908;28;20032;-78
2022/12/23 12:31:57;;;;;;;0.50;0.50;;;8.90;99.90;;;;;;5004245;28;20025;-78
2022/12/23 12:34:26;;;;;;;0.77;0.70;;;8.90;99.90;;;;;;4991480;28;20507;-79
2022/12/23 12:36:58;;;;;;;2.70;0.65;;;8.90;99.90;;;;;;5007383;28;20703;-78
2022/12/23 12:39:32;;;;;;;0.60;0.60;;;8.90;99.90;;;;;;5007054;28;20025;-78
2022/12/23 12:42:20;;;;;;;0.90;0.43;;;8.90;99.90;;;;;;5005323;28;20046;-78
2022/12/23 12:45:04;;;;;;;0.65;0.60;;;8.90;99.90;;;;;;4990995;28;20117;-80
2022/12/23 12:47:47;;;;;;;0.60;0.60;;;8.80;99.90;;;;;;4989912;28;20045;-79
2022/12/23 12:50:24;;;;;;;0.40;0.40;;;8.80;99.90;;;;;;4991031;28;20022;-78
2022/12/23 12:52:52;;;;;;;0.57;0.57;;;8.90;99.90;;;;;;4987722;28;20034;-79
2022/12/23 12:55:22;;;;;;;1.08;0.70;;;8.90;99.90;;;;;;5009780;28;20109;-80
2022/12/23 12:57:48;;;;;;;1.50;0.77;;;8.90;99.90;;;;;;5009364;28;20282;-80
2022/12/23 13:00:23;;;;;;;2.08;0.70;;;8.90;99.90;;;;;;4972116;28;20071;-79
2022/12/23 13:02:52;;;;;;;1.00;0.90;;;8.90;99.90;;;;;;4991335;28;20034;-79
2022/12/23 13:05:36;;;;;;;2.25;0.55;;;8.90;99.90;;;;;;5007150;28;20025;-80
2022/12/23 13:08:12;;;;;;;0.75;0.70;;;8.90;99.90;;;;;;5009720;28;20095;-78
2022/12/23 13:10:47;;;;;;;0.60;0.60;;;8.80;99.90;;;;;;5007901;28;20053;-78
2022/12/23 13:13:22;;;;;;;;;;;8.90;99.90;;;;;;5001903;28;20025;-78
2022/12/23 13:16:15;;;;;;;1.35;1.25;;;8.80;99.90;;;;;;4989168;28;20346;-78
2022/12/23 13:19:09;;;;;;;1.90;1.23;;;8.80;99.90;;;;;;5006749;28;20038;-78
2022/12/23 13:21:40;;;;;;;1.33;1.13;;;8.80;99.90;;;;;;5008833;28;20088;-79
2022/12/23 13:24:37;;;;;;;1.65;1.38;;;8.80;99.90;;;;;;5006421;28;20034;-78
2022/12/23 13:27:12;;;;;;;2.83;2.00;;;8.70;99.90;;;;;;4992820;28;20050;-79
2022/12/23 13:30:11;;;;;;;1.70;1.60;;;8.80;99.90;;;;;;4989983;28;20033;-80
2022/12/23 13:32:58;;;;;;;1.80;1.70;;;8.70;99.90;;;;;;5006035;28;22149;-79
2022/12/23 13:35:42;;;;;;;1.77;1.67;;;8.60;99.90;;;;;;5008514;28;20026;-78
2022/12/23 13:38:20;;;;;;;2.13;1.50;;;8.60;99.90;;;;;;5005094;28;20030;-80
2022/12/23 13:41:00;;;;;;;1.75;1.63;;;8.60;99.90;;;;;;5009126;28;20046;-79